Not for real navigation | The accuracy of this data is not assured | See disclaimer for more information
ICAO NAME COUNTRY WIND Kt GUST Kt VIS TEMP/DEW BARO
UKDD Dnipropetrovs'k Ukraine 2 0 50 -3/-3 30.45
UKDD 180600Z 36002KT 320V050 0050 R08/M0200N FZFG VV000 M03/M03 Q1031 R08/390140 NOSIG
LKNA 4 0 100 -3/-3 30.21
LKNA 180600Z 15004KT 0100 R13/0400N FZFG VV002 M03/M03 Q1023 REFZDZ NOSIG RMK RED RED
LZKZ Kosice, Barca Slovakia 1 0 100 -4/-5 30.30
LZKZ 180600Z VRB01KT 0100 R01/0400N FZFG OVC001 M04/M05 Q1026 NOSIG
UARR Uralsk Kazakhstan 0 0 100 -1/-1 30.27
UARR 180600Z 00000KT 0100 R22/M0200N FZFG VV002 M01/M01 Q1025 R22/750135 TEMPO 0200 FZFG VV001 RMK QBB060 QFE765/1020
BKPR 0 0 150 -3/-5 30.27
BKPR 180600Z 00000KT 0150 R17/0550 FZFG OVC002 M03/M05 Q1025 NOSIG RMK 17190095

Show more

Close Menu